Time;durP1;ratioP1;P1;durP2;ratioP2;P2;SDS_P1;SDS_P2;PMS_P1;PMS_P2;Temp;Humidity;BMP_temperature;BMP_pressure;BME280_temperature;BME280_humidity;BME280_pressure;Samples;Min_cycle;Max_cycle;Signal;HPM_P1;HPM_P2
2023/12/06 00:01:10;;;;;;;108.70;41.60;;;;;;;-2.17;100.00;99091.86;103928;1280;60490;-32
2023/12/06 00:03:35;;;;;;;99.10;41.10;;;;;;;-2.16;100.00;99090.95;103882;1280;60648;-31
2023/12/06 00:06:01;;;;;;;105.00;40.80;;;;;;;-2.21;100.00;99089.08;103861;1279;60511;-32
2023/12/06 00:08:27;;;;;;;449.80;246.90;;;;;;;-2.21;100.00;99086.63;103873;1280;60661;-31
2023/12/06 00:10:53;;;;;;;230.00;93.40;;;;;;;-2.19;100.00;99085.22;103881;1280;60428;-31
2023/12/06 00:13:19;;;;;;;445.80;221.20;;;;;;;-2.24;100.00;99084.55;104053;1284;60552;-31
2023/12/06 00:15:45;;;;;;;341.30;166.30;;;;;;;-2.27;100.00;99090.92;103845;1280;60492;-30
2023/12/06 00:18:11;;;;;;;382.30;184.90;;;;;;;-2.29;100.00;99096.88;103892;1279;60562;-32
2023/12/06 00:20:37;;;;;;;219.10;90.00;;;;;;;-2.30;100.00;99097.83;104063;1279;60559;-32
2023/12/06 00:23:02;;;;;;;138.00;56.50;;;;;;;-2.29;100.00;99098.87;103969;1280;67259;-31
2023/12/06 00:25:28;;;;;;;134.40;50.50;;;;;;;-2.22;100.00;99098.81;103914;1283;60475;-32
2023/12/06 00:27:55;;;;;;;207.00;83.60;;;;;;;-2.23;100.00;99097.60;103964;1283;60578;-31
2023/12/06 00:36:29;;;;;;;177.80;70.60;;;;;;;-2.35;100.00;99098.25;102780;1295;600094;-31
2023/12/06 00:38:55;;;;;;;114.10;43.20;;;;;;;-2.38;100.00;99104.79;102870;1295;59254;-30
2023/12/06 00:41:22;;;;;;;114.50;42.20;;;;;;;-2.33;100.00;99103.34;102568;1296;59464;-32
2023/12/06 00:43:51;;;;;;;101.20;40.30;;;;;;;-2.28;100.00;99105.25;102693;1292;59420;-37
2023/12/06 00:46:20;;;;;;;130.00;44.40;;;;;;;-2.26;100.00;99101.40;102693;1292;72205;-30
2023/12/06 00:48:45;;;;;;;103.80;41.30;;;;;;;-2.28;100.00;99101.39;102748;1292;68419;-30
2023/12/06 00:51:11;;;;;;;119.10;46.00;;;;;;;-2.32;100.00;99105.55;102687;1294;262734;-32
2023/12/06 00:53:37;;;;;;;161.50;59.80;;;;;;;-2.33;100.00;99107.03;102864;1295;59442;-31
2023/12/06 00:56:03;;;;;;;174.10;61.70;;;;;;;-2.38;100.00;99105.96;103045;1292;59378;-32
2023/12/06 00:58:29;;;;;;;306.40;73.10;;;;;;;-2.43;100.00;99104.98;102874;1295;59403;-31
2023/12/06 01:00:55;;;;;;;235.70;61.10;;;;;;;-2.41;100.00;99104.50;103042;1289;60284;-32
2023/12/06 01:03:21;;;;;;;165.40;60.40;;;;;;;-2.46;100.00;99109.60;102997;1289;59753;-32
2023/12/06 01:05:46;;;;;;;131.10;46.10;;;;;;;-2.52;100.00;99113.27;102999;1289;60114;-33
2023/12/06 01:08:12;;;;;;;128.70;44.50;;;;;;;-2.58;100.00;99106.70;103042;1289;59807;-31
2023/12/06 01:10:38;;;;;;;115.20;41.80;;;;;;;-2.64;100.00;99107.51;103098;1292;59669;-30
2023/12/06 01:13:04;;;;;;;118.00;44.90;;;;;;;-2.70;100.00;99110.80;103309;1288;73419;-34
2023/12/06 01:15:30;;;;;;;;;;;;;;;-2.77;100.00;99112.60;103056;1289;59707;-31
2023/12/06 01:17:56;;;;;;;155.90;58.80;;;;;;;-2.87;100.00;99117.34;102985;1289;59779;-34
2023/12/06 01:20:22;;;;;;;153.10;55.10;;;;;;;-2.93;100.00;99115.05;102955;1289;59752;-32
2023/12/06 01:22:48;;;;;;;232.10;99.40;;;;;;;-2.98;100.00;99111.04;103069;1288;59685;-28
2023/12/06 01:25:14;;;;;;;173.00;63.30;;;;;;;-3.02;100.00;99110.48;103166;1289;59697;-29
2023/12/06 01:27:40;;;;;;;178.10;74.30;;;;;;;-3.06;100.00;99111.69;103052;1289;59748;-30
2023/12/06 01:30:06;;;;;;;277.40;118.30;;;;;;;-3.11;100.00;99111.15;103104;1290;60473;-31
2023/12/06 01:32:32;;;;;;;218.60;87.20;;;;;;;-3.14;100.00;99115.21;102957;1290;59752;-31
2023/12/06 01:34:58;;;;;;;166.70;66.70;;;;;;;-3.17;100.00;99114.27;103193;1294;59751;-31
2023/12/06 01:37:24;;;;;;;282.60;119.50;;;;;;;-3.20;100.00;99112.40;102929;1289;59727;-31
2023/12/06 01:39:50;;;;;;;440.20;198.40;;;;;;;-3.24;100.00;99111.64;102804;1289;59712;-29
2023/12/06 01:42:16;;;;;;;235.60;79.90;;;;;;;-3.30;100.00;99112.25;103171;1290;59779;-33
2023/12/06 01:44:43;;;;;;;336.40;143.40;;;;;;;-3.33;100.00;99107.94;103050;1289;73373;-31
2023/12/06 01:47:09;;;;;;;342.90;168.50;;;;;;;-3.36;100.00;99110.59;102960;1294;59801;-31
2023/12/06 01:49:35;;;;;;;373.40;191.90;;;;;;;-3.38;100.00;99110.07;103249;1292;59736;-31
2023/12/06 01:52:00;;;;;;;428.70;236.30;;;;;;;-3.38;100.00;99106.04;102933;1292;59754;-29
2023/12/06 02:33:27;;;;;;;472.00;232.20;;;;;;;-3.97;100.00;99096.39;103679;1280;612626;-28
2023/12/06 02:36:00;;;;;;;271.80;103.90;;;;;;;-3.94;100.00;99093.40;103618;1283;91623;-31
2023/12/06 02:38:25;;;;;;;275.00;99.40;;;;;;;-3.93;100.00;99088.23;103594;1286;59192;-31
2023/12/06 02:40:51;;;;;;;190.70;68.10;;;;;;;-3.92;100.00;99081.89;103722;1286;59344;-28
2023/12/06 02:43:17;;;;;;;610.30;293.80;;;;;;;-3.96;100.00;99086.34;103798;1281;59310;-32
2023/12/06 02:45:43;;;;;;;322.20;128.10;;;;;;;-3.95;100.00;99090.11;103672;1281;59379;-31
2023/12/06 02:48:09;;;;;;;165.90;62.00;;;;;;;-3.95;100.00;99094.34;103690;1287;59356;-31
2023/12/06 02:50:35;;;;;;;190.30;70.50;;;;;;;-4.02;100.00;99090.30;103684;1281;59260;-31
2023/12/06 02:53:00;;;;;;;286.30;116.10;;;;;;;-4.09;100.00;99091.84;103794;1282;59358;-33
2023/12/06 02:55:27;;;;;;;219.00;85.20;;;;;;;-4.13;100.00;99090.29;103683;1281;59305;-34
2023/12/06 02:57:53;;;;;;;194.30;69.20;;;;;;;-4.19;100.00;99087.53;103699;1282;59699;-30
2023/12/06 03:00:18;;;;;;;183.10;66.80;;;;;;;-4.24;100.00;99088.08;103772;1281;59762;-32
2023/12/06 03:02:44;;;;;;;256.60;111.90;;;;;;;-4.29;100.00;99089.67;103768;1281;59711;-29
2023/12/06 03:05:10;;;;;;;420.80;213.30;;;;;;;-4.37;100.00;99089.67;103763;1285;59517;-29
2023/12/06 03:07:36;;;;;;;;;;;;;;;-4.40;100.00;99096.23;103741;1282;59760;-32
2023/12/06 03:10:03;;;;;;;132.30;50.10;;;;;;;-4.41;100.00;99103.46;103612;1282;60121;-32
2023/12/06 03:12:29;;;;;;;129.30;49.30;;;;;;;-4.45;100.00;99101.08;103679;1281;59651;-32
2023/12/06 03:14:54;;;;;;;;;;;;;;;-4.49;100.00;99102.25;103587;1281;59794;-32
2023/12/06 03:17:20;;;;;;;328.80;139.70;;;;;;;-4.62;100.00;99098.64;103625;1283;59779;-33
2023/12/06 03:19:47;;;;;;;291.90;127.70;;;;;;;-4.70;100.00;99098.30;103846;1282;59778;-33
2023/12/06 03:22:13;;;;;;;267.70;111.90;;;;;;;-4.71;100.00;99098.39;103647;1282;59776;-31
2023/12/06 03:24:39;;;;;;;357.90;163.60;;;;;;;-4.70;100.00;99098.30;103627;1282;59758;-29
2023/12/06 03:27:05;;;;;;;393.20;171.70;;;;;;;-4.68;100.00;99096.79;103621;1282;59762;-32
2023/12/06 03:29:30;;;;;;;403.30;193.30;;;;;;;-4.66;100.00;99093.31;103631;1282;59700;-33
2023/12/06 03:31:56;;;;;;;386.20;178.50;;;;;;;-4.63;100.00;99093.63;103704;1281;60665;-30
2023/12/06 03:34:22;;;;;;;173.20;67.50;;;;;;;-4.56;100.00;99094.72;103717;1281;59639;-31
2023/12/06 03:36:48;;;;;;;;;;;;;;;-4.51;100.00;99093.31;103728;1281;59760;-29
2023/12/06 03:39:16;;;;;;;177.10;65.00;;;;;;;-4.54;100.00;99094.52;103713;1281;59778;-31
2023/12/06 03:41:42;;;;;;;358.50;160.20;;;;;;;-4.58;100.00;99094.67;103630;1282;72436;-31
2023/12/06 03:44:08;;;;;;;208.30;84.80;;;;;;;-4.61;100.00;99095.63;103698;1285;59664;-30
2023/12/06 03:46:34;;;;;;;135.10;49.70;;;;;;;-4.61;100.00;99087.36;103637;1286;60126;-31
2023/12/06 03:49:01;;;;;;;;;;;;;;;-4.64;100.00;99085.66;103686;1286;59688;-32
2023/12/06 03:51:28;;;;;;;587.00;320.60;;;;;;;-4.67;100.00;99084.30;103721;1281;59762;-30
2023/12/06 03:53:54;;;;;;;847.30;458.10;;;;;;;-4.65;100.00;99083.64;103673;1282;68823;-30
2023/12/06 03:56:20;;;;;;;655.90;366.70;;;;;;;-4.65;100.00;99083.64;103729;1282;59677;-32
2023/12/06 03:58:46;;;;;;;644.00;372.50;;;;;;;-4.65;100.00;99083.82;103735;1282;59714;-31
2023/12/06 04:01:12;;;;;;;1005.80;569.80;;;;;;;-4.64;100.00;99083.25;103631;1281;59781;-29
2023/12/06 04:03:40;;;;;;;491.20;244.40;;;;;;;-4.63;100.00;99083.35;103661;1281;59736;-29
2023/12/06 04:06:07;;;;;;;523.70;265.20;;;;;;;-4.62;100.00;99084.64;103735;1282;73346;-31
2023/12/06 04:08:32;;;;;;;460.60;214.40;;;;;;;-4.63;100.00;99086.64;103674;1281;68131;-29
2023/12/06 04:10:58;;;;;;;340.70;141.30;;;;;;;-4.61;100.00;99088.09;103603;1286;59780;-31
2023/12/06 04:13:24;;;;;;;235.00;94.80;;;;;;;-4.61;100.00;99090.00;103731;1281;59738;-32
2023/12/06 04:15:50;;;;;;;314.20;126.50;;;;;;;-4.59;100.00;99093.16;103729;1282;59776;-32
2023/12/06 04:18:15;;;;;;;249.90;88.10;;;;;;;-4.48;100.00;99092.58;103734;1282;59680;-30
2023/12/06 04:20:41;;;;;;;219.20;81.50;;;;;;;-4.39;100.00;99094.05;103620;1283;59689;-31
2023/12/06 04:23:07;;;;;;;240.40;82.20;;;;;;;-4.38;100.00;99096.21;103641;1286;59717;-30
2023/12/06 04:25:33;;;;;;;266.50;83.20;;;;;;;-4.40;100.00;99097.95;103670;1285;59693;-31
2023/12/06 04:27:59;;;;;;;213.30;64.90;;;;;;;-4.41;100.00;99104.52;103868;1282;59782;-32
2023/12/06 04:30:25;;;;;;;261.10;73.10;;;;;;;-4.43;100.00;99103.59;103677;1281;59739;-32
2023/12/06 04:32:50;;;;;;;289.20;120.60;;;;;;;-4.48;100.00;99108.80;103640;1281;59724;-31
2023/12/06 04:35:16;;;;;;;214.90;88.80;;;;;;;-4.52;100.00;99109.08;103751;1281;59643;-32
2023/12/06 04:37:42;;;;;;;174.10;67.50;;;;;;;-4.56;100.00;99109.89;103682;1282;59750;-34
2023/12/06 04:40:08;;;;;;;146.30;51.80;;;;;;;-4.60;100.00;99111.98;103738;1283;60261;-33
2023/12/06 04:42:35;;;;;;;136.40;47.20;;;;;;;-4.64;100.00;99109.77;103633;1285;59772;-34
2023/12/06 04:45:01;;;;;;;122.40;46.20;;;;;;;-4.67;100.00;99111.93;103653;1282;59765;-33
2023/12/06 04:47:26;;;;;;;129.70;45.90;;;;;;;-4.67;100.00;99116.46;103651;1285;59794;-31
2023/12/06 04:49:52;;;;;;;122.50;44.50;;;;;;;-4.62;100.00;99118.05;103651;1285;59696;-33
2023/12/06 04:52:18;;;;;;;124.70;45.30;;;;;;;-4.56;100.00;99117.45;103547;1286;59667;-31
2023/12/06 04:54:44;;;;;;;128.30;45.40;;;;;;;-4.59;100.00;99114.99;103597;1281;59736;-31
2023/12/06 04:57:10;;;;;;;129.60;44.00;;;;;;;-4.59;100.00;99118.52;103698;1281;59813;-31
2023/12/06 04:59:36;;;;;;;;;;;;;;;-4.55;100.00;99115.08;103658;1281;73104;-31
2023/12/06 05:02:03;;;;;;;355.30;165.10;;;;;;;-4.56;100.00;99114.63;103653;1286;59749;-29
2023/12/06 05:04:28;;;;;;;439.80;208.40;;;;;;;-4.58;100.00;99113.52;103669;1282;59779;-31
2023/12/06 05:06:54;;;;;;;710.50;337.50;;;;;;;-4.58;100.00;99111.64;103642;1282;59785;-29
2023/12/06 05:09:20;;;;;;;772.70;362.00;;;;;;;-4.58;100.00;99109.00;103674;1282;59737;-31
2023/12/06 05:11:46;;;;;;;366.90;133.20;;;;;;;-4.56;100.00;99108.55;103767;1282;59864;-29
2023/12/06 05:14:11;;;;;;;663.70;355.00;;;;;;;-4.57;100.00;99110.14;103673;1281;59697;-30
2023/12/06 05:16:38;;;;;;;447.60;202.20;;;;;;;-4.56;100.00;99110.60;103658;1281;59689;-30
2023/12/06 05:19:03;;;;;;;294.40;114.10;;;;;;;-4.53;100.00;99106.73;103743;1282;59696;-31
2023/12/06 05:21:29;;;;;;;356.80;158.70;;;;;;;-4.47;100.00;99110.16;103689;1285;59657;-32
2023/12/06 05:23:55;;;;;;;288.60;112.60;;;;;;;-4.45;100.00;99110.16;103675;1286;59673;-33
2023/12/06 05:26:23;;;;;;;313.00;121.10;;;;;;;-4.41;100.00;99110.40;103633;1281;73447;-33
2023/12/06 05:28:49;;;;;;;247.30;93.20;;;;;;;-4.35;100.00;99110.02;103643;1282;68495;-30
2023/12/06 05:31:15;;;;;;;255.70;99.80;;;;;;;-4.31;100.00;99118.23;103609;1285;59727;-32
2023/12/06 05:33:41;;;;;;;244.90;93.90;;;;;;;-4.31;100.00;99116.35;103750;1282;59786;-31
2023/12/06 05:36:07;;;;;;;323.10;133.30;;;;;;;-4.28;100.00;99118.40;103617;1285;59782;-29
2023/12/06 05:38:33;;;;;;;258.90;98.50;;;;;;;-4.26;100.00;99118.93;103615;1282;59718;-31
2023/12/06 05:40:59;;;;;;;312.00;123.20;;;;;;;-4.21;100.00;99121.38;103629;1281;59768;-31
2023/12/06 05:43:25;;;;;;;;;;;;;;;-4.17;100.00;99120.92;103685;1282;59750;-31
2023/12/06 05:45:51;;;;;;;291.60;120.30;;;;;;;-4.13;100.00;99122.05;103605;1282;59845;-29
2023/12/06 05:48:17;;;;;;;241.90;97.10;;;;;;;-4.10;100.00;99122.02;103721;1281;59766;-29
2023/12/06 05:50:42;;;;;;;283.60;122.90;;;;;;;-4.06;100.00;99123.32;103671;1282;59747;-31
2023/12/06 05:53:08;;;;;;;276.10;120.30;;;;;;;-4.01;100.00;99126.79;103712;1282;59760;-31
2023/12/06 05:55:34;;;;;;;232.50;98.40;;;;;;;-3.95;100.00;99126.17;103669;1282;68526;-30
2023/12/06 05:58:00;;;;;;;192.00;76.30;;;;;;;-3.87;100.00;99126.59;103676;1287;61106;-33
2023/12/06 06:00:26;;;;;;;225.40;86.20;;;;;;;-3.86;100.00;99127.77;103653;1281;59753;-32
2023/12/06 06:02:57;;;;;;;291.50;103.30;;;;;;;-3.84;100.00;99129.20;103724;1282;59717;-30
2023/12/06 06:05:23;;;;;;;313.50;124.20;;;;;;;-3.84;100.00;99131.64;103595;1281;59677;-32
2023/12/06 06:07:48;;;;;;;182.40;63.20;;;;;;;-3.81;100.00;99131.08;103649;1282;59757;-30
2023/12/06 06:10:14;;;;;;;244.50;103.30;;;;;;;-3.80;100.00;99135.00;103602;1281;59772;-31
2023/12/06 06:12:40;;;;;;;160.30;56.10;;;;;;;-3.78;100.00;99133.48;103571;1281;59666;-34
2023/12/06 06:15:08;;;;;;;217.60;89.90;;;;;;;-3.78;100.00;99137.31;103678;1285;60402;-30
2023/12/06 06:17:34;;;;;;;226.70;97.30;;;;;;;-3.76;100.00;99136.00;103656;1285;59837;-30
2023/12/06 06:20:00;;;;;;;258.30;104.30;;;;;;;-3.75;100.00;99135.23;103639;1282;59670;-31
2023/12/06 06:22:27;;;;;;;221.20;88.10;;;;;;;-3.76;100.00;99135.62;103660;1282;59692;-33
2023/12/06 06:24:52;;;;;;;214.20;83.30;;;;;;;-3.76;100.00;99132.68;103647;1282;59686;-32
2023/12/06 06:27:18;;;;;;;;;;;;;;;-3.75;100.00;99134.33;103586;1284;59749;-33
2023/12/06 06:29:44;;;;;;;217.50;87.70;;;;;;;-3.75;100.00;99137.80;103581;1281;59815;-31
2023/12/06 06:32:10;;;;;;;209.10;80.00;;;;;;;-3.72;100.00;99136.80;103697;1282;59696;-32
2023/12/06 06:34:36;;;;;;;191.20;71.80;;;;;;;-3.72;100.00;99137.45;103502;1281;60346;-30
2023/12/06 06:37:02;;;;;;;197.90;71.40;;;;;;;-3.72;100.00;99134.31;103700;1281;60575;-30
2023/12/06 06:39:28;;;;;;;210.70;83.70;;;;;;;-3.77;100.00;99138.46;103678;1282;60567;-31
2023/12/06 06:41:54;;;;;;;230.50;100.40;;;;;;;-3.77;100.00;99138.49;103617;1281;60537;-32
2023/12/06 06:44:21;;;;;;;195.10;82.30;;;;;;;-3.76;100.00;99141.41;103628;1281;60555;-33
2023/12/06 06:46:46;;;;;;;183.40;73.30;;;;;;;-3.75;100.00;99144.52;103674;1281;60479;-31
2023/12/06 06:49:12;;;;;;;175.20;74.70;;;;;;;-3.74;100.00;99142.18;103688;1281;60446;-34
2023/12/06 06:51:39;;;;;;;165.50;67.20;;;;;;;-3.75;100.00;99140.97;103627;1282;68505;-33
2023/12/06 06:54:06;;;;;;;174.60;71.60;;;;;;;-3.73;100.00;99142.95;103633;1282;71965;-30
2023/12/06 06:56:32;;;;;;;186.80;75.00;;;;;;;-3.71;100.00;99137.38;103491;1281;60506;-30
2023/12/06 06:58:58;;;;;;;176.20;60.20;;;;;;;-3.66;100.00;99136.98;103630;1285;60557;-31
2023/12/06 07:01:24;;;;;;;185.90;64.40;;;;;;;-3.62;100.00;99138.84;103689;1281;60543;-32
2023/12/06 07:03:50;;;;;;;;;;;;;;;-3.60;100.00;99139.70;103649;1281;60526;-31
2023/12/06 07:06:16;;;;;;;203.20;69.70;;;;;;;-3.57;100.00;99135.27;103572;1281;60547;-32
2023/12/06 07:08:42;;;;;;;172.00;66.90;;;;;;;-3.53;100.00;99134.32;103578;1282;60555;-32
2023/12/06 07:11:08;;;;;;;142.10;54.40;;;;;;;-3.49;100.00;99138.36;103685;1282;60523;-31
2023/12/06 07:13:37;;;;;;;137.00;53.40;;;;;;;-3.46;100.00;99143.23;103740;1281;60970;-30
2023/12/06 07:16:03;;;;;;;132.70;52.20;;;;;;;-3.43;100.00;99142.77;103454;1281;60442;-33
2023/12/06 07:18:31;;;;;;;153.00;57.90;;;;;;;-3.42;100.00;99142.53;103629;1281;72645;-33
2023/12/06 07:20:58;;;;;;;156.80;59.00;;;;;;;-3.40;100.00;99145.02;103736;1282;68266;-31
2023/12/06 07:23:24;;;;;;;138.60;54.10;;;;;;;-3.37;100.00;99146.23;103613;1282;72202;-30
2023/12/06 07:25:50;;;;;;;;;;;;;;;-3.35;100.00;99146.02;103776;1281;60485;-30
2023/12/06 07:28:16;;;;;;;165.50;60.90;;;;;;;-3.29;100.00;99147.36;103641;1282;60572;-31
2023/12/06 07:30:42;;;;;;;163.10;60.10;;;;;;;-3.26;100.00;99150.83;103757;1281;60550;-33
2023/12/06 07:33:08;;;;;;;151.20;56.10;;;;;;;-3.23;100.00;99150.10;103675;1282;61095;-32
2023/12/06 07:35:34;;;;;;;147.10;55.70;;;;;;;-3.20;100.00;99154.21;103692;1282;60509;-31
2023/12/06 07:38:00;;;;;;;;;;;;;;;-3.18;100.00;99153.73;103583;1281;60520;-33
2023/12/06 07:40:26;;;;;;;148.70;55.20;;;;;;;-3.15;100.00;99155.75;103625;1281;60564;-33
2023/12/06 07:42:52;;;;;;;;;;;;;;;-3.10;100.00;99154.88;103726;1286;60502;-31
2023/12/06 07:45:18;;;;;;;144.10;54.80;;;;;;;-3.08;100.00;99151.90;103636;1281;60653;-31
2023/12/06 07:47:43;;;;;;;143.00;54.00;;;;;;;-3.02;100.00;99150.92;103666;1281;60549;-33
2023/12/06 07:50:09;;;;;;;168.20;61.50;;;;;;;-2.95;100.00;99151.59;103591;1281;73032;-33
2023/12/06 07:52:36;;;;;;;;;;;;;;;-2.89;100.00;99152.92;103649;1281;60499;-31
2023/12/06 07:55:06;;;;;;;143.50;53.10;;;;;;;-2.81;100.00;99150.38;103625;1282;60491;-32
2023/12/06 07:57:32;;;;;;;161.40;62.80;;;;;;;-2.75;100.00;99148.74;103661;1282;60433;-31
2023/12/06 07:59:58;;;;;;;153.20;59.90;;;;;;;-2.69;100.00;99148.92;103491;1287;73605;-32
2023/12/06 08:02:27;;;;;;;;;;;;;;;-2.59;100.00;99153.76;103721;1282;60561;-31
2023/12/06 08:04:53;;;;;;;144.10;57.60;;;;;;;-2.55;100.00;99149.95;103635;1281;73093;-33
2023/12/06 08:07:18;;;;;;;139.10;54.60;;;;;;;-2.49;100.00;99152.45;103634;1282;60657;-31
2023/12/06 08:09:44;;;;;;;121.20;48.60;;;;;;;-2.37;100.00;99153.63;103610;1282;60562;-32
2023/12/06 08:12:10;;;;;;;131.10;50.80;;;;;;;-2.27;100.00;99148.28;103723;1281;60834;-30
2023/12/06 08:14:39;;;;;;;134.60;53.50;;;;;;;-2.22;100.00;99150.86;103625;1281;60588;-29
2023/12/06 08:17:05;;;;;;;135.60;52.60;;;;;;;-2.12;100.00;99152.33;103662;1282;69490;-32
2023/12/06 08:19:32;;;;;;;133.30;52.80;;;;;;;-2.06;100.00;99153.63;103729;1282;73303;-33
2023/12/06 08:21:57;;;;;;;;;;;;;;;-1.99;100.00;99156.57;103669;1282;60819;-31
2023/12/06 08:24:23;;;;;;;135.30;54.90;;;;;;;-1.94;100.00;99159.01;103625;1285;60575;-29
2023/12/06 08:26:50;;;;;;;183.20;63.20;;;;;;;-1.87;100.00;99158.79;103676;1281;60471;-33
2023/12/06 08:29:15;;;;;;;152.10;56.40;;;;;;;-1.83;100.00;99157.05;103608;1281;60477;-32
2023/12/06 08:31:41;;;;;;;138.30;55.70;;;;;;;-1.76;100.00;99155.96;103603;1282;60627;-32
2023/12/06 08:34:08;;;;;;;136.10;54.50;;;;;;;-1.67;100.00;99157.34;103687;1282;60586;-31
2023/12/06 08:36:33;;;;;;;;;;;;;;;-1.63;100.00;99157.05;103775;1281;60580;-35
2023/12/06 08:38:59;;;;;;;133.40;53.10;;;;;;;-1.64;100.00;99157.60;103579;1281;60568;-33
2023/12/06 08:41:25;;;;;;;136.30;58.40;;;;;;;-1.57;100.00;99158.98;103496;1282;60512;-33
2023/12/06 08:43:51;;;;;;;145.20;56.00;;;;;;;-1.53;100.00;99159.17;103712;1281;68167;-30
2023/12/06 08:46:18;;;;;;;;;;;;;;;-1.49;100.00;99155.77;103610;1285;60515;-33
2023/12/06 08:48:44;;;;;;;151.30;60.10;;;;;;;-1.46;100.00;99154.90;103642;1282;60465;-31
2023/12/06 08:51:10;;;;;;;136.10;53.50;;;;;;;-1.42;100.00;99153.85;103631;1285;60566;-31
2023/12/06 08:53:36;;;;;;;157.40;64.00;;;;;;;-1.34;100.00;99152.58;103628;1285;60576;-32
2023/12/06 08:56:02;;;;;;;158.40;63.60;;;;;;;-1.29;100.00;99155.23;103713;1285;61272;-35
2023/12/06 08:58:28;;;;;;;;;;;;;;;-1.21;100.00;99160.56;103827;1282;60966;-33
2023/12/06 09:00:53;;;;;;;151.20;60.30;;;;;;;-1.19;100.00;99162.54;103583;1285;60503;-31
2023/12/06 09:03:20;;;;;;;;;;;;;;;-1.20;100.00;99159.94;103725;1282;60508;-31
2023/12/06 09:05:47;;;;;;;140.10;58.90;;;;;;;-1.15;100.00;99163.23;103747;1281;60585;-31
2023/12/06 09:08:14;;;;;;;143.70;58.00;;;;;;;-1.09;100.00;99164.12;103778;1282;60519;-31
2023/12/06 09:10:39;;;;;;;703.00;313.60;;;;;;;-1.01;100.00;99159.41;103626;1281;60947;-30
2023/12/06 09:13:05;;;;;;;921.50;401.40;;;;;;;-0.96;100.00;99159.34;103699;1283;60644;-32
2023/12/06 09:15:31;;;;;;;984.60;448.20;;;;;;;-0.87;100.00;99158.91;103704;1282;60991;-31
2023/12/06 09:17:57;;;;;;;1009.60;389.50;;;;;;;-0.82;100.00;99159.74;103619;1281;60582;-32
2023/12/06 09:20:23;;;;;;;;;;;;;;;-0.71;100.00;99151.27;103630;1282;60465;-33
2023/12/06 09:22:50;;;;;;;1112.40;447.70;;;;;;;-0.66;100.00;99152.02;103630;1282;60572;-33
2023/12/06 09:25:17;;;;;;;1102.80;498.50;;;;;;;-0.58;100.00;99152.96;103628;1281;60524;-34
2023/12/06 09:27:42;;;;;;;677.40;307.50;;;;;;;-0.50;100.00;99154.47;103627;1281;60486;-32
2023/12/06 09:30:08;;;;;;;398.60;162.70;;;;;;;-0.38;100.00;99153.21;103563;1282;60463;-34
2023/12/06 09:32:35;;;;;;;209.50;75.70;;;;;;;-0.28;100.00;99148.09;103667;1286;61281;-33
2023/12/06 09:35:00;;;;;;;462.10;210.10;;;;;;;-0.17;100.00;99151.68;103617;1285;60565;-35
2023/12/06 09:37:26;;;;;;;337.00;137.00;;;;;;;-0.09;100.00;99151.51;103672;1282;60468;-31
2023/12/06 09:39:54;;;;;;;237.40;110.20;;;;;;;-0.01;100.00;99149.58;103683;1281;68165;-39
2023/12/06 09:42:20;;;;;;;176.40;77.10;;;;;;;0.02;100.00;99152.34;103584;1281;73056;-31
2023/12/06 09:44:45;;;;;;;;;;;;;;;0.08;100.00;99155.02;103638;1281;60585;-31
2023/12/06 09:47:12;;;;;;;154.30;72.30;;;;;;;0.08;100.00;99154.95;103645;1286;60579;-32
2023/12/06 09:49:37;;;;;;;134.70;59.20;;;;;;;0.13;100.00;99157.29;103671;1281;59668;-30
2023/12/06 09:52:11;;;;;;;133.00;58.70;;;;;;;0.14;100.00;99157.60;103742;1282;60499;-30
2023/12/06 09:54:42;;;;;;;170.60;69.00;;;;;;;0.17;100.00;99155.94;103671;1281;69047;-32
2023/12/06 09:57:08;;;;;;;184.60;79.20;;;;;;;0.28;100.00;99155.06;103618;1285;72381;-33
2023/12/06 09:59:33;;;;;;;164.50;70.00;;;;;;;0.39;100.00;99153.19;103702;1281;60496;-31
2023/12/06 10:01:59;;;;;;;189.00;85.40;;;;;;;0.41;100.00;99155.30;103755;1286;60566;-32
2023/12/06 10:04:26;;;;;;;172.10;77.10;;;;;;;0.46;100.00;99156.64;103649;1285;60490;-32
2023/12/06 10:06:51;;;;;;;161.30;70.00;;;;;;;0.53;100.00;99156.06;103681;1282;60500;-31
2023/12/06 10:09:18;;;;;;;156.60;62.50;;;;;;;0.59;100.00;99149.67;103683;1285;60452;-32
2023/12/06 10:11:44;;;;;;;169.70;69.20;;;;;;;0.65;100.00;99147.69;103655;1284;60459;-33
2023/12/06 10:14:18;;;;;;;178.60;69.60;;;;;;;0.70;100.00;99144.42;103765;1281;60486;-32
2023/12/06 10:16:45;;;;;;;140.10;58.80;;;;;;;0.74;100.00;99144.56;103651;1286;60509;-32
2023/12/06 10:19:11;;;;;;;132.00;55.20;;;;;;;0.78;100.00;99144.42;103769;1282;60456;-31
2023/12/06 10:21:39;;;;;;;124.00;51.50;;;;;;;0.82;100.00;99146.34;103613;1282;60608;-32
2023/12/06 10:24:07;;;;;;;126.60;55.30;;;;;;;0.80;100.00;99142.09;103635;1282;68872;-32
2023/12/06 10:26:33;;;;;;;126.00;52.20;;;;;;;0.86;100.00;99145.39;103621;1286;72930;-32
2023/12/06 10:28:59;;;;;;;141.10;57.10;;;;;;;0.95;100.00;99142.81;103599;1281;60585;-33
2023/12/06 10:31:25;;;;;;;116.10;47.30;;;;;;;1.02;100.00;99140.80;103630;1281;60560;-32
2023/12/06 10:33:55;;;;;;;129.90;52.90;;;;;;;1.09;100.00;99140.31;103601;1286;60460;-31
2023/12/06 10:36:21;;;;;;;129.30;52.30;;;;;;;1.18;100.00;99139.48;103746;1283;74280;-30
2023/12/06 10:38:47;;;;;;;123.40;51.90;;;;;;;1.18;100.00;99141.45;103631;1284;60562;-30
2023/12/06 10:41:12;;;;;;;125.10;51.90;;;;;;;1.18;100.00;99139.98;103770;1282;61158;-31
2023/12/06 10:43:38;;;;;;;128.20;52.80;;;;;;;1.26;100.00;99135.90;103547;1282;60490;-32
2023/12/06 10:46:04;;;;;;;126.90;51.00;;;;;;;1.33;100.00;99132.45;103602;1284;60569;-31
2023/12/06 10:48:30;;;;;;;117.70;50.30;;;;;;;1.36;100.00;99130.58;103576;1287;60568;-31
2023/12/06 10:50:56;;;;;;;114.60;51.30;;;;;;;1.37;100.00;99127.77;103651;1281;60569;-31
2023/12/06 10:53:22;;;;;;;117.40;49.60;;;;;;;1.38;100.00;99128.60;103700;1281;60484;-33
2023/12/06 10:55:47;;;;;;;128.10;53.30;;;;;;;1.35;100.00;99130.11;103802;1287;60473;-30
2023/12/06 10:58:16;;;;;;;134.00;57.50;;;;;;;1.37;100.00;99131.52;103642;1287;60569;-30
2023/12/06 11:00:42;;;;;;;139.50;61.60;;;;;;;1.39;100.00;99131.33;103616;1282;60397;-33
2023/12/06 11:03:09;;;;;;;151.60;66.00;;;;;;;1.42;100.00;99127.17;103888;1282;60565;-29
2023/12/06 11:05:43;;;;;;;154.70;70.90;;;;;;;1.46;100.00;99127.17;103812;1281;68106;-31
2023/12/06 11:08:27;;;;;;;147.70;61.20;;;;;;;1.54;100.00;99125.83;103631;1282;72869;-31
2023/12/06 11:10:57;;;;;;;146.60;59.60;;;;;;;1.65;100.00;99127.06;103588;1287;60483;-33
2023/12/06 11:13:31;;;;;;;141.70;60.00;;;;;;;1.72;100.00;99126.61;103600;1282;60563;-31
2023/12/06 11:16:11;;;;;;;121.20;52.90;;;;;;;1.78;99.99;99127.93;103582;1282;60468;-33
2023/12/06 11:18:49;;;;;;;136.10;60.20;;;;;;;1.77;100.00;99128.90;103687;1282;74423;-31
2023/12/06 11:21:17;;;;;;;127.40;52.10;;;;;;;1.83;100.00;99130.52;103823;1282;68376;-34
2023/12/06 11:23:45;;;;;;;123.40;54.40;;;;;;;1.76;99.83;99129.55;103672;1287;71565;-32
2023/12/06 11:26:11;;;;;;;129.50;54.90;;;;;;;1.69;99.27;99131.87;103603;1282;60508;-31
2023/12/06 11:28:40;;;;;;;134.80;57.50;;;;;;;1.70;99.71;99127.98;103617;1282;60573;-33
2023/12/06 11:31:07;;;;;;;134.70;59.30;;;;;;;1.70;99.26;99126.33;103679;1283;60427;-32
2023/12/06 11:33:33;;;;;;;129.20;53.40;;;;;;;1.74;99.88;99128.52;103739;1286;74111;-31
2023/12/06 11:35:59;;;;;;;133.10;54.80;;;;;;;1.75;99.15;99124.57;103649;1281;68255;-32
2023/12/06 11:38:36;;;;;;;136.20;57.50;;;;;;;1.77;99.17;99124.42;103783;1286;60442;-32
2023/12/06 11:41:04;;;;;;;169.90;69.00;;;;;;;1.79;99.69;99127.48;103568;1287;60562;-33